createdAt,value
2018-06-11T00:01:43.620Z,16.90
2018-06-11T00:02:43.673Z,16.81
2018-06-11T00:04:36.664Z,16.78
2018-06-11T00:05:36.727Z,16.84
2018-06-11T00:07:29.725Z,16.78
2018-06-11T00:08:29.779Z,16.81
2018-06-11T00:10:22.774Z,16.79
2018-06-11T00:11:22.838Z,16.79
2018-06-11T00:13:15.836Z,16.78
2018-06-11T00:14:15.894Z,16.78
2018-06-11T00:16:08.884Z,16.81
2018-06-11T00:17:08.948Z,16.74
2018-06-11T00:19:01.950Z,16.76
2018-06-11T00:20:02.005Z,16.84
2018-06-11T00:21:55.001Z,16.75
2018-06-11T00:22:55.090Z,16.74
2018-06-11T00:24:48.047Z,16.71
2018-06-11T00:25:48.113Z,16.81
2018-06-11T00:27:41.109Z,16.81
2018-06-11T00:28:41.166Z,16.75
2018-06-11T00:30:34.154Z,16.74
2018-06-11T00:31:34.219Z,16.72
2018-06-11T00:33:27.218Z,16.69
2018-06-11T00:34:27.272Z,16.74
2018-06-11T00:36:20.262Z,16.65
2018-06-11T00:37:20.328Z,16.61
2018-06-11T00:39:13.369Z,16.54
2018-06-11T00:40:13.382Z,16.51
2018-06-11T00:42:06.374Z,16.49
2018-06-11T00:43:06.439Z,16.43
2018-06-11T00:44:59.434Z,16.38
2018-06-11T00:45:59.493Z,16.42
2018-06-11T00:47:52.488Z,16.41
2018-06-11T00:48:52.547Z,16.41
2018-06-11T00:50:45.534Z,16.38
2018-06-11T00:51:45.598Z,16.32
2018-06-11T00:53:38.598Z,16.23
2018-06-11T00:54:38.654Z,16.21
2018-06-11T00:56:31.648Z,16.20
2018-06-11T00:57:31.714Z,16.20
2018-06-11T00:59:25.226Z,16.36
2018-06-11T01:00:25.276Z,16.31
2018-06-11T01:02:18.270Z,16.42
2018-06-11T01:03:18.335Z,16.39
2018-06-11T01:05:11.336Z,16.36
2018-06-11T01:06:11.391Z,16.32
2018-06-11T01:08:04.440Z,16.36
2018-06-11T01:09:04.456Z,16.24
2018-06-11T01:10:57.452Z,16.20
2018-06-11T01:11:57.512Z,16.29
2018-06-11T01:13:50.519Z,16.29
2018-06-11T01:14:50.570Z,16.38
2018-06-11T01:16:43.560Z,16.23
2018-06-11T01:17:43.625Z,16.35
2018-06-11T01:19:36.627Z,16.26
2018-06-11T01:20:36.684Z,16.20
2018-06-11T01:22:29.674Z,16.35
2018-06-11T01:23:29.738Z,16.24
2018-06-11T01:25:22.740Z,16.26
2018-06-11T01:26:22.798Z,16.29
2018-06-11T01:28:15.788Z,16.23
2018-06-11T01:29:15.853Z,16.26
2018-06-11T01:31:08.856Z,16.29
2018-06-11T01:32:08.914Z,16.26
2018-06-11T01:34:01.903Z,16.24
2018-06-11T01:35:01.967Z,16.17
2018-06-11T01:36:54.967Z,16.21
2018-06-11T01:37:55.022Z,16.15
2018-06-11T01:39:48.024Z,16.28
2018-06-11T01:40:48.084Z,16.16
2018-06-11T01:42:41.077Z,16.20
2018-06-11T01:43:41.140Z,16.17
2018-06-11T01:45:34.141Z,16.15
2018-06-11T01:46:34.198Z,16.20
2018-06-11T01:48:27.194Z,16.21
2018-06-11T01:49:27.254Z,16.21
2018-06-11T01:51:20.253Z,16.28
2018-06-11T01:52:20.309Z,16.21
2018-06-11T01:54:13.308Z,16.23
2018-06-11T01:55:13.370Z,16.28
2018-06-11T01:57:06.370Z,16.28
2018-06-11T01:58:06.428Z,16.21
2018-06-11T01:59:59.425Z,16.24
2018-06-11T02:00:59.488Z,16.23
2018-06-11T02:02:52.485Z,16.17
2018-06-11T02:03:52.537Z,16.28
2018-06-11T02:05:45.557Z,16.26
2018-06-11T02:06:45.595Z,16.29
2018-06-11T02:08:38.590Z,16.20
2018-06-11T02:09:38.655Z,16.16
2018-06-11T02:11:31.654Z,16.31
2018-06-11T02:12:31.709Z,16.21
2018-06-11T02:14:24.707Z,16.41
2018-06-11T02:15:24.773Z,16.32
2018-06-11T02:17:17.770Z,16.38
2018-06-11T02:18:17.823Z,16.46
2018-06-11T02:20:10.818Z,16.38
2018-06-11T02:21:10.881Z,16.43
2018-06-11T02:23:03.878Z,16.57
2018-06-11T02:24:03.933Z,16.49
2018-06-11T02:25:56.932Z,16.51
2018-06-11T02:26:56.991Z,16.50
2018-06-11T02:28:49.989Z,16.50
2018-06-11T02:29:50.044Z,16.54
2018-06-11T02:31:43.043Z,16.41
2018-06-11T02:32:43.102Z,16.46
2018-06-11T02:34:36.085Z,16.43
2018-06-11T02:35:36.149Z,16.38
2018-06-11T02:37:29.193Z,16.47
2018-06-11T02:38:29.203Z,16.46
2018-06-11T02:40:22.194Z,16.43
2018-06-11T02:41:22.255Z,16.36
2018-06-11T02:43:15.253Z,16.36
2018-06-11T02:44:15.311Z,16.42
2018-06-11T02:46:08.306Z,16.39
2018-06-11T02:47:08.365Z,16.36
2018-06-11T02:49:01.363Z,16.33
2018-06-11T02:50:01.416Z,16.28
2018-06-11T02:51:54.414Z,16.33
2018-06-11T02:52:54.471Z,16.23
2018-06-11T02:54:47.472Z,16.21
2018-06-11T02:55:47.530Z,16.15
2018-06-11T02:57:40.527Z,16.24
2018-06-11T02:58:40.587Z,16.23
2018-06-11T03:00:33.576Z,16.21
2018-06-11T03:01:33.634Z,16.24
2018-06-11T03:03:26.636Z,16.16
2018-06-11T03:04:26.690Z,16.33
2018-06-11T03:06:19.682Z,16.33
2018-06-11T03:07:19.743Z,16.23
2018-06-11T03:09:12.740Z,16.35
2018-06-11T03:10:12.799Z,16.24
2018-06-11T03:12:05.788Z,16.21
2018-06-11T03:13:05.849Z,16.28
2018-06-11T03:14:58.848Z,16.31
2018-06-11T03:15:58.903Z,16.29
2018-06-11T03:17:51.893Z,16.33
2018-06-11T03:18:51.954Z,16.36
2018-06-11T03:20:44.955Z,16.32
2018-06-11T03:21:45.009Z,16.42
2018-06-11T03:23:38.064Z,16.42
2018-06-11T03:24:38.060Z,16.42
2018-06-11T03:26:31.048Z,16.41
2018-06-11T03:27:31.111Z,16.42
2018-06-11T03:29:24.114Z,16.36
2018-06-11T03:30:24.164Z,16.41
2018-06-11T03:32:17.161Z,16.38
2018-06-11T03:33:17.220Z,16.35
2018-06-11T03:35:10.218Z,16.43
2018-06-11T03:36:10.271Z,16.39
2018-06-11T03:38:03.268Z,16.36
2018-06-11T03:39:03.330Z,16.39
2018-06-11T03:40:56.327Z,16.43
2018-06-11T03:41:56.385Z,16.47
2018-06-11T03:43:49.382Z,16.43
2018-06-11T03:44:49.446Z,16.54
2018-06-11T03:46:42.444Z,16.49
2018-06-11T03:47:42.501Z,16.50
2018-06-11T03:49:35.505Z,16.50
2018-06-11T03:50:35.558Z,16.54
2018-06-11T03:52:28.549Z,16.60
2018-06-11T03:53:28.612Z,16.60
2018-06-11T03:55:21.611Z,16.58
2018-06-11T03:56:21.669Z,16.66
2018-06-11T03:58:14.670Z,16.61
2018-06-11T03:59:14.729Z,16.68
2018-06-11T04:01:07.728Z,16.64
2018-06-11T04:02:07.786Z,16.69
2018-06-11T04:04:00.783Z,16.72
2018-06-11T04:05:00.850Z,16.68
2018-06-11T04:06:53.850Z,16.60
2018-06-11T04:07:53.902Z,16.54
2018-06-11T04:09:46.892Z,16.53
2018-06-11T04:10:46.973Z,16.57
2018-06-11T04:12:39.963Z,16.50
2018-06-11T04:13:40.024Z,16.46
2018-06-11T04:15:33.019Z,16.43
2018-06-11T04:16:33.074Z,16.47
2018-06-11T04:18:26.064Z,16.50
2018-06-11T04:19:26.168Z,16.47
2018-06-11T04:21:19.131Z,16.49
2018-06-11T04:22:19.190Z,16.61
2018-06-11T04:24:12.176Z,16.64
2018-06-11T04:25:12.240Z,16.53
2018-06-11T04:27:05.244Z,16.50
2018-06-11T04:28:05.300Z,16.47
2018-06-11T04:29:58.304Z,16.42
2018-06-11T04:30:58.364Z,16.42
2018-06-11T04:32:51.362Z,16.38
2018-06-11T04:33:51.418Z,16.35
2018-06-11T04:35:44.407Z,16.33
2018-06-11T04:36:44.472Z,16.33
2018-06-11T04:38:37.475Z,16.35
2018-06-11T04:39:37.554Z,16.38
2018-06-11T04:41:30.535Z,16.38
2018-06-11T04:42:30.589Z,16.36
2018-06-11T04:44:23.579Z,16.39
2018-06-11T04:45:23.681Z,16.36
2018-06-11T04:47:16.647Z,16.35
2018-06-11T04:48:16.707Z,16.33
2018-06-11T04:50:09.695Z,16.57
2018-06-11T04:51:09.758Z,16.53
2018-06-11T04:53:02.759Z,16.60
2018-06-11T04:54:02.817Z,16.74
2018-06-11T04:55:55.816Z,16.87
2018-06-11T04:56:55.879Z,16.78
2018-06-11T04:58:48.879Z,16.74
2018-06-11T04:59:48.935Z,16.81
2018-06-11T05:01:41.938Z,16.74
2018-06-11T05:02:41.996Z,16.71
2018-06-11T05:04:34.991Z,16.75
2018-06-11T05:05:35.040Z,16.64
2018-06-11T05:07:28.057Z,16.75
2018-06-11T05:08:28.102Z,16.87
2018-06-11T05:10:21.096Z,16.68
2018-06-11T05:11:21.154Z,16.68
2018-06-11T05:13:14.163Z,16.71
2018-06-11T05:14:14.223Z,16.69
2018-06-11T05:16:07.231Z,16.86
2018-06-11T05:17:07.276Z,16.86
2018-06-11T05:19:00.285Z,16.90
2018-06-11T05:20:00.336Z,17.09
2018-06-11T05:21:53.834Z,17.02
2018-06-11T05:22:53.891Z,17.08
2018-06-11T05:24:46.902Z,17.23
2018-06-11T05:25:46.953Z,17.12
2018-06-11T05:27:39.971Z,17.23
2018-06-11T05:28:40.025Z,17.22
2018-06-11T05:30:32.999Z,17.39
2018-06-11T05:31:33.064Z,17.42
2018-06-11T05:33:26.073Z,17.57
2018-06-11T05:34:26.142Z,17.59
2018-06-11T05:36:19.114Z,17.64
2018-06-11T05:37:19.180Z,17.52
2018-06-11T05:39:12.183Z,17.49
2018-06-11T05:40:12.241Z,17.48
2018-06-11T05:42:05.233Z,17.64
2018-06-11T05:43:05.305Z,17.52
2018-06-11T05:44:58.307Z,17.36
2018-06-11T05:45:58.361Z,17.38
2018-06-11T05:47:51.364Z,17.39
2018-06-11T05:48:51.423Z,17.60
2018-06-11T05:50:44.431Z,17.64
2018-06-11T05:51:44.479Z,17.68
2018-06-11T05:53:37.491Z,17.74
2018-06-11T05:54:37.534Z,17.86
2018-06-11T05:56:30.532Z,17.79
2018-06-11T05:57:30.611Z,17.82
2018-06-11T05:59:23.596Z,17.72
2018-06-11T06:00:23.647Z,17.85
2018-06-11T06:02:16.656Z,17.83
2018-06-11T06:03:16.708Z,17.98
2018-06-11T06:05:09.725Z,17.92
2018-06-11T06:06:09.779Z,17.98
2018-06-11T06:08:02.769Z,18.03
2018-06-11T06:09:02.833Z,18.16
2018-06-11T06:10:55.836Z,18.18
2018-06-11T06:11:55.892Z,18.07
2018-06-11T06:13:48.891Z,18.10
2018-06-11T06:14:48.949Z,18.25
2018-06-11T06:16:41.961Z,18.33
2018-06-11T06:17:42.009Z,18.45
2018-06-11T06:19:35.016Z,18.08
2018-06-11T06:20:35.066Z,18.10
2018-06-11T06:22:28.590Z,17.86
2018-06-11T06:23:28.628Z,17.94
2018-06-11T06:25:21.628Z,17.89
2018-06-11T06:26:21.697Z,17.80
2018-06-11T06:28:14.678Z,17.92
2018-06-11T06:29:14.743Z,17.92
2018-06-11T06:31:07.743Z,18.04
2018-06-11T06:32:07.803Z,18.37
2018-06-11T06:34:00.812Z,18.43
2018-06-11T06:35:00.876Z,18.50
2018-06-11T06:36:54.877Z,18.66
2018-06-11T06:37:54.934Z,18.66
2018-06-11T06:39:47.948Z,18.74
2018-06-11T06:40:47.992Z,18.63
2018-06-11T06:42:40.998Z,18.78
2018-06-11T06:43:41.055Z,18.78
2018-06-11T06:45:34.063Z,18.81
2018-06-11T06:46:34.115Z,18.83
2018-06-11T06:48:27.118Z,18.93
2018-06-11T06:49:27.181Z,19.08
2018-06-11T06:51:20.205Z,18.96
2018-06-11T06:52:20.238Z,18.90
2018-06-11T06:54:13.240Z,18.86
2018-06-11T06:55:13.299Z,18.96
2018-06-11T06:57:06.302Z,19.09
2018-06-11T06:58:06.365Z,19.00
2018-06-11T06:59:59.358Z,18.70
2018-06-11T07:00:59.416Z,18.75
2018-06-11T07:02:52.450Z,18.99
2018-06-11T07:03:52.478Z,19.15
2018-06-11T07:05:45.485Z,19.31
2018-06-11T07:06:46.499Z,19.44
2018-06-11T07:08:38.540Z,19.58
2018-06-11T07:09:38.650Z,19.88
2018-06-11T07:11:31.604Z,20.51
2018-06-11T07:12:31.658Z,20.75
2018-06-11T07:14:24.659Z,21.30
2018-06-11T07:15:24.725Z,21.46
2018-06-11T07:17:17.723Z,21.77
2018-06-11T07:18:17.787Z,21.99
2018-06-11T07:20:10.813Z,22.62
2018-06-11T07:21:10.850Z,22.70
2018-06-11T07:23:03.861Z,22.81
2018-06-11T07:24:03.923Z,22.18
2018-06-11T07:25:56.933Z,22.41
2018-06-11T07:26:56.994Z,22.62
2018-06-11T07:28:50.009Z,25.21
2018-06-11T07:29:50.067Z,24.28
2018-06-11T07:31:43.087Z,22.54
2018-06-11T07:32:43.137Z,22.18
2018-06-11T07:34:36.147Z,21.72
2018-06-11T07:35:36.213Z,21.51
2018-06-11T07:37:29.225Z,21.15
2018-06-11T07:38:29.292Z,20.85
2018-06-11T07:40:22.286Z,20.66
2018-06-11T07:41:22.349Z,20.58
2018-06-11T07:43:15.362Z,20.95
2018-06-11T07:44:15.422Z,20.99
2018-06-11T07:46:08.429Z,21.30
2018-06-11T07:47:08.491Z,21.29
2018-06-11T07:49:01.498Z,23.96
2018-06-11T07:50:01.563Z,26.06
2018-06-11T07:51:54.559Z,26.02
2018-06-11T07:52:54.629Z,26.89
2018-06-11T07:54:47.637Z,24.92
2018-06-11T07:55:47.707Z,24.68
2018-06-11T07:57:40.717Z,24.66
2018-06-11T07:58:40.774Z,24.57
2018-06-11T08:00:33.782Z,24.99
2018-06-11T08:01:33.850Z,26.60
2018-06-11T08:03:26.878Z,26.31
2018-06-11T08:04:26.929Z,26.19
2018-06-11T08:06:19.944Z,25.10
2018-06-11T08:07:20.025Z,24.80
2018-06-11T08:09:13.033Z,24.51
2018-06-11T08:10:13.094Z,24.14
2018-06-11T08:12:06.104Z,27.18
2018-06-11T08:13:06.198Z,28.59
2018-06-11T08:14:59.191Z,28.85
2018-06-11T08:15:59.255Z,30.31
2018-06-11T08:17:52.270Z,32.41
2018-06-11T08:18:52.342Z,32.70
2018-06-11T08:20:45.379Z,32.43
2018-06-11T08:21:45.436Z,32.83
2018-06-11T08:23:38.458Z,34.16
2018-06-11T08:24:38.540Z,34.42
2018-06-11T08:26:31.548Z,33.45
2018-06-11T08:27:31.639Z,31.52
2018-06-11T08:29:24.649Z,29.54
2018-06-11T08:30:24.722Z,28.86
2018-06-11T08:32:17.742Z,29.94
2018-06-11T08:33:17.822Z,31.12
2018-06-11T08:35:10.866Z,29.69
2018-06-11T08:36:10.931Z,29.68
2018-06-11T08:38:03.952Z,31.49
2018-06-11T08:39:04.029Z,31.54
2018-06-11T08:40:57.054Z,31.66
2018-06-11T08:41:57.127Z,31.90
2018-06-11T08:43:50.167Z,32.55
2018-06-11T08:44:50.225Z,32.68
2018-06-11T08:46:43.249Z,32.22
2018-06-11T08:47:43.329Z,32.46
2018-06-11T08:49:36.359Z,32.83
2018-06-11T08:50:36.434Z,33.07
2018-06-11T08:52:29.457Z,33.01
2018-06-11T08:53:29.535Z,32.55
2018-06-11T08:55:22.570Z,33.27
2018-06-11T08:56:22.645Z,33.59
2018-06-11T08:58:15.673Z,32.04
2018-06-11T08:59:15.748Z,31.70
2018-06-11T09:01:08.795Z,30.91
2018-06-11T09:02:08.863Z,31.18
2018-06-11T09:04:01.890Z,31.36
2018-06-11T09:05:01.975Z,30.96
2018-06-11T09:06:55.006Z,30.90
2018-06-11T09:07:55.081Z,28.82
2018-06-11T09:09:48.625Z,30.09
2018-06-11T09:10:48.690Z,31.14
2018-06-11T09:12:41.712Z,31.66
2018-06-11T09:13:41.799Z,31.99
2018-06-11T09:15:34.827Z,32.96
2018-06-11T09:16:34.900Z,33.39
2018-06-11T09:18:28.076Z,34.03
2018-06-11T09:19:28.025Z,34.27
2018-06-11T09:21:21.045Z,33.15
2018-06-11T09:22:21.120Z,33.27
2018-06-11T09:24:14.142Z,32.38
2018-06-11T09:25:14.225Z,31.59
2018-06-11T09:27:07.260Z,32.58
2018-06-11T09:28:07.335Z,31.87
2018-06-11T09:30:00.376Z,31.21
2018-06-11T09:31:00.442Z,30.63
2018-06-11T09:32:53.463Z,29.08
2018-06-11T09:33:53.543Z,28.86
2018-06-11T09:35:46.579Z,27.22
2018-06-11T09:36:46.652Z,27.08
2018-06-11T09:38:39.679Z,26.77
2018-06-11T09:39:39.749Z,25.90
2018-06-11T09:41:32.776Z,25.55
2018-06-11T09:42:32.849Z,25.70
2018-06-11T09:44:25.859Z,25.83
2018-06-11T09:45:25.949Z,25.99
2018-06-11T09:47:18.960Z,26.19
2018-06-11T09:48:19.027Z,26.21
2018-06-11T09:50:12.046Z,25.91
2018-06-11T09:51:12.128Z,25.70
2018-06-11T09:53:05.148Z,25.83
2018-06-11T09:54:05.220Z,25.84
2018-06-11T09:55:58.222Z,26.06
2018-06-11T09:56:58.288Z,26.22
2018-06-11T09:58:51.301Z,25.85
2018-06-11T09:59:51.375Z,25.96
2018-06-11T10:01:44.397Z,25.91
2018-06-11T10:02:44.465Z,26.05
2018-06-11T10:04:37.475Z,25.84
2018-06-11T10:05:37.547Z,25.73
2018-06-11T10:07:30.561Z,25.63
2018-06-11T10:08:30.641Z,25.03
2018-06-11T10:10:23.641Z,25.16
2018-06-11T10:11:23.715Z,25.35
2018-06-11T10:13:16.728Z,25.53
2018-06-11T10:14:16.796Z,25.55
2018-06-11T10:16:09.830Z,25.22
2018-06-11T10:17:09.901Z,25.07
2018-06-11T10:19:02.933Z,24.95
2018-06-11T10:20:02.979Z,24.95
2018-06-11T10:21:56.502Z,25.10
2018-06-11T10:22:56.547Z,25.25
2018-06-11T10:24:49.606Z,25.17
2018-06-11T10:25:49.625Z,25.28
2018-06-11T10:27:42.637Z,25.28
2018-06-11T10:28:42.706Z,25.38
2018-06-11T10:30:35.710Z,25.21
2018-06-11T10:31:35.777Z,24.95
2018-06-11T10:33:29.303Z,24.95
2018-06-11T10:34:29.358Z,24.95
2018-06-11T10:36:22.373Z,24.48
2018-06-11T10:37:22.441Z,24.53
2018-06-11T10:39:15.456Z,23.73
2018-06-11T10:40:15.516Z,23.71
2018-06-11T10:42:08.527Z,23.80
2018-06-11T10:43:08.591Z,23.98
2018-06-11T10:45:01.599Z,24.21
2018-06-11T10:46:01.663Z,24.13
2018-06-11T10:47:54.679Z,24.42
2018-06-11T10:48:54.740Z,24.48
2018-06-11T10:50:47.743Z,24.32
2018-06-11T10:51:47.810Z,24.51
2018-06-11T10:53:40.825Z,24.33
2018-06-11T10:54:40.891Z,24.10
2018-06-11T10:56:33.894Z,24.23
2018-06-11T10:57:33.959Z,24.42
2018-06-11T10:59:26.972Z,24.60
2018-06-11T11:00:27.045Z,24.42
2018-06-11T11:02:20.052Z,24.42
2018-06-11T11:03:20.113Z,24.50
2018-06-11T11:05:13.117Z,24.53
2018-06-11T11:06:13.193Z,24.45
2018-06-11T11:08:06.193Z,24.28
2018-06-11T11:09:06.258Z,24.32
2018-06-11T11:10:59.258Z,24.17
2018-06-11T11:11:59.325Z,23.93
2018-06-11T11:13:52.339Z,23.84
2018-06-11T11:14:52.400Z,23.87
2018-06-11T11:16:45.431Z,23.62
2018-06-11T11:17:45.479Z,23.65
2018-06-11T11:19:38.494Z,23.56
2018-06-11T11:20:38.556Z,23.59
2018-06-11T11:22:32.081Z,23.74
2018-06-11T11:23:32.136Z,23.91
2018-06-11T11:25:25.146Z,23.91
2018-06-11T11:26:25.226Z,23.96
2018-06-11T11:28:18.226Z,24.14
2018-06-11T11:29:18.289Z,24.01
2018-06-11T11:31:11.294Z,23.98
2018-06-11T11:32:11.364Z,23.93
2018-06-11T11:34:04.374Z,24.10
2018-06-11T11:35:04.450Z,24.03
2018-06-11T11:36:57.949Z,23.95
2018-06-11T11:37:58.017Z,23.78
2018-06-11T11:39:51.839Z,23.80
2018-06-11T11:40:51.606Z,23.84
2018-06-11T11:42:44.648Z,23.83
2018-06-11T11:43:44.683Z,23.99
2018-06-11T11:45:37.717Z,23.88
2018-06-11T11:46:37.738Z,23.84
2018-06-11T11:48:30.742Z,23.74
2018-06-11T11:49:30.808Z,23.69
2018-06-11T11:51:23.814Z,23.66
2018-06-11T11:52:23.875Z,23.73
2018-06-11T11:54:16.887Z,23.66
2018-06-11T11:55:16.950Z,23.81
2018-06-11T11:57:09.962Z,23.84
2018-06-11T11:58:10.081Z,23.84
2018-06-11T12:00:03.048Z,23.95
2018-06-11T12:01:03.098Z,24.03
2018-06-11T12:02:56.104Z,24.10
2018-06-11T12:03:56.175Z,24.03
2018-06-11T12:05:49.180Z,24.06
2018-06-11T12:06:49.238Z,24.14
2018-06-11T12:08:42.242Z,24.18
2018-06-11T12:09:42.310Z,24.21
2018-06-11T12:11:35.315Z,24.11
2018-06-11T12:12:35.378Z,24.08
2018-06-11T12:14:28.404Z,24.05
2018-06-11T12:15:28.450Z,24.02
2018-06-11T12:17:21.463Z,24.13
2018-06-11T12:18:21.527Z,24.11
2018-06-11T12:20:14.533Z,24.36
2018-06-11T12:21:14.595Z,24.38
2018-06-11T12:23:07.595Z,24.06
2018-06-11T12:24:07.663Z,24.11
2018-06-11T12:26:00.673Z,24.02
2018-06-11T12:27:00.729Z,23.95
2018-06-11T12:28:53.735Z,24.05
2018-06-11T12:29:53.796Z,24.06
2018-06-11T12:31:46.810Z,24.03
2018-06-11T12:32:46.873Z,23.83
2018-06-11T12:34:39.879Z,23.63
2018-06-11T12:35:39.946Z,23.69
2018-06-11T12:37:32.961Z,23.73
2018-06-11T12:38:33.024Z,23.74
2018-06-11T12:40:26.037Z,23.88
2018-06-11T12:41:26.122Z,23.87
2018-06-11T12:43:19.094Z,24.02
2018-06-11T12:44:19.164Z,23.98
2018-06-11T12:46:12.171Z,23.95
2018-06-11T12:47:12.231Z,23.88
2018-06-11T12:49:05.232Z,23.83
2018-06-11T12:50:05.297Z,23.91
2018-06-11T12:51:58.305Z,23.93
2018-06-11T12:52:58.364Z,23.83
2018-06-11T12:54:51.394Z,23.81
2018-06-11T12:55:51.463Z,23.69
2018-06-11T12:57:44.473Z,23.84
2018-06-11T12:58:44.534Z,23.76
2018-06-11T13:00:38.049Z,23.78
2018-06-11T13:01:38.111Z,23.86
2018-06-11T13:03:31.116Z,23.74
2018-06-11T13:04:31.181Z,23.83
2018-06-11T13:06:24.178Z,24.05
2018-06-11T13:07:24.243Z,24.11
2018-06-11T13:09:17.252Z,24.20
2018-06-11T13:10:17.315Z,24.23
2018-06-11T13:12:10.325Z,24.24
2018-06-11T13:13:10.387Z,24.18
2018-06-11T13:15:03.391Z,24.10
2018-06-11T13:16:03.463Z,24.11
2018-06-11T13:17:56.469Z,24.08
2018-06-11T13:18:56.531Z,24.11
2018-06-11T13:20:49.538Z,23.84
2018-06-11T13:21:49.607Z,23.88
2018-06-11T13:23:42.613Z,24.01
2018-06-11T13:24:42.672Z,24.01
2018-06-11T13:26:35.676Z,23.96
2018-06-11T13:27:35.740Z,23.87
2018-06-11T13:29:28.744Z,23.84
2018-06-11T13:30:28.809Z,23.88
2018-06-11T13:32:21.841Z,23.83
2018-06-11T13:33:21.887Z,23.86
2018-06-11T13:35:14.890Z,23.92
2018-06-11T13:36:14.953Z,23.95
2018-06-11T13:38:07.957Z,24.05
2018-06-11T13:39:08.019Z,24.06
2018-06-11T13:41:01.037Z,24.18
2018-06-11T13:42:01.108Z,24.23
2018-06-11T13:43:54.111Z,24.24
2018-06-11T13:44:54.264Z,24.24
2018-06-11T13:46:47.180Z,24.30
2018-06-11T13:47:47.244Z,24.20
2018-06-11T13:49:40.256Z,23.96
2018-06-11T13:50:40.318Z,23.98
2018-06-11T13:52:33.321Z,24.08
2018-06-11T13:53:33.388Z,24.14
2018-06-11T13:55:26.395Z,24.14
2018-06-11T13:56:26.454Z,24.06
2018-06-11T13:58:19.459Z,23.98
2018-06-11T13:59:19.528Z,24.01
2018-06-11T14:01:12.524Z,23.98
2018-06-11T14:02:12.587Z,24.06
2018-06-11T14:04:05.605Z,24.17
2018-06-11T14:05:05.654Z,24.11
2018-06-11T14:06:58.658Z,24.08
2018-06-11T14:07:58.723Z,24.23
2018-06-11T14:09:51.730Z,24.36
2018-06-11T14:10:51.789Z,24.38
2018-06-11T14:12:44.793Z,24.32
2018-06-11T14:13:44.858Z,24.26
2018-06-11T14:15:37.863Z,24.38
2018-06-11T14:16:37.924Z,24.42
2018-06-11T14:18:30.920Z,24.45
2018-06-11T14:19:30.991Z,24.45
2018-06-11T14:21:23.997Z,24.47
2018-06-11T14:22:24.056Z,24.48
2018-06-11T14:24:17.097Z,24.50
2018-06-11T14:25:17.158Z,24.47
2018-06-11T14:27:10.167Z,24.55
2018-06-11T14:28:10.233Z,24.58
2018-06-11T14:30:03.237Z,24.76
2018-06-11T14:31:03.298Z,24.80
2018-06-11T14:32:56.302Z,24.85
2018-06-11T14:33:56.367Z,24.93
2018-06-11T14:35:49.374Z,24.95
2018-06-11T14:36:49.436Z,24.99
2018-06-11T14:38:42.437Z,24.98
2018-06-11T14:39:42.504Z,24.99
2018-06-11T14:41:35.520Z,24.91
2018-06-11T14:42:35.576Z,24.92
2018-06-11T14:44:28.590Z,25.14
2018-06-11T14:45:28.652Z,25.07
2018-06-11T14:47:21.677Z,25.08
2018-06-11T14:48:21.732Z,25.13
2018-06-11T14:50:14.739Z,25.11
2018-06-11T14:51:14.800Z,25.03
2018-06-11T14:53:07.805Z,25.25
2018-06-11T14:54:07.870Z,25.14
2018-06-11T14:56:00.877Z,25.26
2018-06-11T14:57:00.939Z,25.35
2018-06-11T14:58:53.939Z,25.25
2018-06-11T14:59:54.008Z,25.35
2018-06-11T15:01:47.018Z,25.40
2018-06-11T15:02:47.076Z,25.33
2018-06-11T15:04:40.089Z,25.10
2018-06-11T15:05:40.153Z,25.06
2018-06-11T15:07:33.156Z,24.92
2018-06-11T15:08:33.224Z,24.93
2018-06-11T15:10:26.230Z,25.10
2018-06-11T15:11:26.292Z,25.08
2018-06-11T15:13:19.301Z,25.17
2018-06-11T15:14:19.360Z,25.29
2018-06-11T15:16:12.371Z,24.92
2018-06-11T15:17:12.433Z,24.85
2018-06-11T15:19:05.426Z,24.70
2018-06-11T15:20:05.504Z,24.65
2018-06-11T15:21:59.018Z,24.78
2018-06-11T15:22:59.081Z,24.74
2018-06-11T15:24:52.085Z,24.77
2018-06-11T15:25:52.150Z,24.77
2018-06-11T15:27:45.165Z,24.69
2018-06-11T15:28:45.227Z,24.74
2018-06-11T15:30:38.233Z,24.80
2018-06-11T15:31:38.302Z,24.80
2018-06-11T15:33:31.299Z,24.96
2018-06-11T15:34:31.372Z,24.86
2018-06-11T15:36:24.382Z,24.84
2018-06-11T15:37:24.434Z,24.76
2018-06-11T15:39:17.436Z,24.65
2018-06-11T15:40:17.505Z,24.57
2018-06-11T15:42:10.519Z,24.50
2018-06-11T15:43:10.581Z,24.39
2018-06-11T15:45:03.582Z,24.40
2018-06-11T15:46:03.650Z,24.36
2018-06-11T15:47:56.657Z,24.54
2018-06-11T15:48:56.714Z,24.54
2018-06-11T15:50:49.721Z,24.40
2018-06-11T15:51:49.784Z,24.38
2018-06-11T15:53:42.802Z,24.30
2018-06-11T15:54:42.861Z,24.30
2018-06-11T15:56:35.868Z,24.30
2018-06-11T15:57:35.930Z,24.10
2018-06-11T15:59:28.941Z,24.26
2018-06-11T16:00:29.038Z,24.28
2018-06-11T16:02:22.009Z,24.39
2018-06-11T16:03:22.068Z,24.60
2018-06-11T16:05:15.124Z,24.50
2018-06-11T16:06:15.134Z,24.47
2018-06-11T16:08:08.140Z,24.48
2018-06-11T16:09:08.202Z,24.50
2018-06-11T16:11:01.221Z,24.57
2018-06-11T16:12:01.308Z,24.55
2018-06-11T16:13:54.280Z,24.53
2018-06-11T16:14:54.345Z,24.51
2018-06-11T16:16:47.376Z,24.48
2018-06-11T16:17:47.416Z,24.51
2018-06-11T16:19:40.467Z,24.63
2018-06-11T16:20:40.520Z,24.65
2018-06-11T16:22:34.019Z,24.53
2018-06-11T16:23:34.071Z,24.50
2018-06-11T16:25:27.071Z,24.53
2018-06-11T16:26:27.134Z,24.57
2018-06-11T16:28:20.179Z,24.57
2018-06-11T16:29:20.220Z,24.65
2018-06-11T16:31:13.269Z,24.53
2018-06-11T16:32:13.270Z,24.58
2018-06-11T16:34:06.785Z,24.45
2018-06-11T16:35:06.849Z,24.47
2018-06-11T16:36:59.878Z,24.42
2018-06-11T16:37:59.917Z,24.33
2018-06-11T16:39:52.925Z,24.36
2018-06-11T16:40:52.985Z,24.40
2018-06-11T16:42:45.997Z,24.26
2018-06-11T16:43:46.062Z,24.35
2018-06-11T16:45:39.060Z,24.36
2018-06-11T16:46:39.126Z,24.30
2018-06-11T16:48:32.136Z,24.20
2018-06-11T16:49:32.201Z,24.17
2018-06-11T16:51:25.199Z,24.26
2018-06-11T16:52:25.265Z,24.24
2018-06-11T16:54:18.279Z,24.23
2018-06-11T16:55:18.342Z,24.20
2018-06-11T16:57:11.332Z,24.13
2018-06-11T16:58:11.411Z,24.01
2018-06-11T17:00:04.409Z,23.95
2018-06-11T17:01:04.471Z,23.98
2018-06-11T17:02:57.469Z,24.05
2018-06-11T17:03:57.540Z,23.98
2018-06-11T17:05:50.550Z,23.88
2018-06-11T17:06:50.615Z,23.87
2018-06-11T17:08:43.624Z,23.88
2018-06-11T17:09:43.690Z,23.84
2018-06-11T17:11:36.688Z,23.84
2018-06-11T17:12:36.753Z,23.87
2018-06-11T17:14:29.759Z,23.81
2018-06-11T17:15:29.818Z,23.73
2018-06-11T17:17:22.820Z,23.80
2018-06-11T17:18:22.886Z,23.73
2018-06-11T17:20:15.965Z,23.76
2018-06-11T17:21:15.962Z,23.76
2018-06-11T17:23:08.955Z,23.69
2018-06-11T17:24:09.023Z,23.73
2018-06-11T17:26:02.034Z,23.66
2018-06-11T17:27:02.093Z,23.73
2018-06-11T17:28:55.126Z,23.63
2018-06-11T17:29:55.186Z,23.58
2018-06-11T17:31:48.191Z,23.59
2018-06-11T17:32:48.230Z,23.62
2018-06-11T17:34:41.272Z,23.62
2018-06-11T17:35:41.304Z,23.55
2018-06-11T17:37:34.303Z,23.51
2018-06-11T17:38:34.373Z,23.48
2018-06-11T17:40:27.890Z,23.46
2018-06-11T17:41:27.947Z,23.41
2018-06-11T17:43:20.952Z,23.41
2018-06-11T17:44:21.016Z,23.44
2018-06-11T17:46:14.022Z,23.44
2018-06-11T17:47:14.082Z,23.44
2018-06-11T17:49:07.083Z,23.37
2018-06-11T17:50:07.150Z,23.36
2018-06-11T17:52:00.209Z,23.34
2018-06-11T17:53:00.269Z,23.34
2018-06-11T17:54:53.262Z,23.28
2018-06-11T17:55:53.300Z,23.37
2018-06-11T17:57:46.363Z,23.28
2018-06-11T17:58:46.375Z,23.41
2018-06-11T18:00:39.380Z,23.32
2018-06-11T18:01:39.454Z,23.32
2018-06-11T18:03:32.442Z,23.27
2018-06-11T18:04:32.519Z,23.31
2018-06-11T18:06:25.548Z,23.21
2018-06-11T18:07:25.574Z,23.06
2018-06-11T18:09:18.712Z,22.99
2018-06-11T18:10:18.673Z,22.98
2018-06-11T18:12:11.671Z,22.94
2018-06-11T18:13:11.751Z,22.87
2018-06-11T18:15:04.744Z,22.90
2018-06-11T18:16:04.810Z,22.76
2018-06-11T18:17:57.827Z,22.72
2018-06-11T18:18:57.888Z,22.81
2018-06-11T18:20:50.897Z,22.68
2018-06-11T18:21:50.955Z,22.68
2018-06-11T18:23:43.961Z,22.68
2018-06-11T18:24:44.029Z,22.57
2018-06-11T18:26:37.034Z,22.62
2018-06-11T18:27:37.107Z,22.50
2018-06-11T18:29:30.102Z,22.47
2018-06-11T18:30:30.172Z,22.55
2018-06-11T18:32:23.171Z,22.47
2018-06-11T18:33:23.229Z,22.39
2018-06-11T18:35:16.234Z,22.28